createdAt,value
2018-12-03T00:00:50.679Z,83.43
2018-12-03T00:03:19.979Z,83.30
2018-12-03T00:05:48.872Z,82.75
2018-12-03T00:08:17.761Z,83.42
2018-12-03T00:10:46.755Z,83.29
2018-12-03T00:13:15.665Z,83.15
2018-12-03T00:15:44.514Z,83.37
2018-12-03T00:18:13.431Z,83.75
2018-12-03T00:20:42.984Z,83.23
2018-12-03T00:23:12.991Z,83.48
2018-12-03T00:25:42.888Z,83.85
2018-12-03T00:28:11.701Z,83.43
2018-12-03T00:30:40.750Z,83.47
2018-12-03T00:33:09.642Z,83.83
2018-12-03T00:35:38.531Z,84.05
2018-12-03T00:38:07.798Z,84.65
2018-12-03T00:40:36.722Z,84.89
2018-12-03T00:43:05.987Z,84.82
2018-12-03T00:45:34.918Z,84.96
2018-12-03T00:48:03.907Z,85.34
2018-12-03T00:50:32.772Z,85.19
2018-12-03T00:53:01.834Z,84.96
2018-12-03T00:55:30.681Z,85.24
2018-12-03T00:57:59.569Z,85.25
2018-12-03T01:00:29.025Z,84.80
2018-12-03T01:02:58.008Z,85.59
2018-12-03T01:05:26.913Z,85.69
2018-12-03T01:07:56.224Z,85.31
2018-12-03T01:10:25.055Z,85.82
2018-12-03T01:12:53.850Z,85.31
2018-12-03T01:15:22.716Z,85.45
2018-12-03T01:17:51.480Z,84.42
2018-12-03T01:20:20.269Z,84.64
2018-12-03T01:22:49.286Z,84.58
2018-12-03T01:25:18.028Z,84.71
2018-12-03T01:27:46.814Z,84.28
2018-12-03T01:30:15.783Z,84.40
2018-12-03T01:32:44.649Z,84.48
2018-12-03T01:35:13.514Z,84.29
2018-12-03T01:37:43.123Z,84.66
2018-12-03T01:45:42.130Z,84.60
2018-12-03T01:48:12.308Z,84.49
2018-12-03T01:50:42.307Z,84.71
2018-12-03T01:53:12.539Z,84.58
2018-12-03T01:58:52.123Z,84.82
2018-12-03T02:01:22.140Z,84.88
2018-12-03T02:03:52.174Z,84.81
2018-12-03T02:06:41.067Z,84.71
2018-12-03T02:09:11.209Z,84.59
2018-12-03T02:11:41.202Z,84.71
2018-12-03T02:19:55.863Z,84.23
2018-12-03T02:22:25.886Z,84.22
2018-12-03T02:24:55.880Z,84.45
2018-12-03T02:27:26.077Z,84.75
2018-12-03T02:29:56.135Z,84.29
2018-12-03T02:32:26.157Z,84.21
2018-12-03T02:34:56.337Z,84.17
2018-12-03T02:37:26.405Z,84.21
2018-12-03T02:39:56.420Z,84.19
2018-12-03T02:42:45.298Z,84.09
2018-12-03T02:45:15.837Z,84.23
2018-12-03T02:47:45.843Z,84.40
2018-12-03T02:50:16.427Z,84.07
2018-12-03T02:52:46.444Z,83.99
2018-12-03T02:58:18.940Z,84.59
2018-12-03T03:00:48.957Z,84.35
2018-12-03T03:03:18.931Z,84.19
2018-12-03T03:05:49.707Z,84.11
2018-12-03T03:08:19.725Z,84.24
2018-12-03T03:10:49.745Z,84.51
2018-12-03T03:13:19.865Z,84.88
2018-12-03T03:15:49.901Z,85.23
2018-12-03T03:18:19.909Z,84.68
2018-12-03T03:20:50.120Z,85.07
2018-12-03T03:23:20.140Z,85.82
2018-12-03T03:25:50.161Z,85.99
2018-12-03T03:28:20.309Z,86.27
2018-12-03T03:30:50.430Z,86.95
2018-12-03T03:36:34.428Z,87.74
2018-12-03T03:39:15.986Z,87.66
2018-12-03T03:41:46.215Z,87.78
2018-12-03T03:44:16.227Z,88.10
2018-12-03T03:46:46.313Z,88.02
2018-12-03T03:49:16.365Z,88.62
2018-12-03T03:51:46.381Z,88.29
2018-12-03T03:54:16.402Z,88.41
2018-12-03T03:56:46.443Z,87.89
2018-12-03T03:59:16.496Z,87.78
2018-12-03T04:01:46.532Z,87.51
2018-12-03T04:07:19.067Z,86.93
2018-12-03T04:09:49.029Z,86.66
2018-12-03T04:12:19.096Z,87.12
2018-12-03T04:14:49.228Z,87.08
2018-12-03T04:17:19.343Z,87.65
2018-12-03T04:19:49.391Z,87.79
2018-12-03T04:22:19.554Z,87.70
2018-12-03T04:24:49.640Z,87.78
2018-12-03T04:27:19.696Z,87.69
2018-12-03T04:29:49.917Z,88.00
2018-12-03T04:32:20.004Z,88.21
2018-12-03T04:34:50.006Z,88.26
2018-12-03T04:37:20.783Z,88.24
2018-12-03T04:39:51.997Z,88.27
2018-12-03T04:42:22.082Z,88.44
2018-12-03T04:44:52.292Z,88.46
2018-12-03T04:47:22.316Z,88.44
2018-12-03T04:49:52.326Z,88.74
2018-12-03T04:52:22.449Z,88.34
2018-12-03T04:54:52.592Z,88.42
2018-12-03T04:57:22.654Z,88.36
2018-12-03T04:59:52.948Z,88.11
2018-12-03T05:02:22.997Z,87.88
2018-12-03T05:04:53.064Z,87.69
2018-12-03T05:07:23.204Z,87.43
2018-12-03T05:09:53.281Z,87.95
2018-12-03T05:12:23.298Z,87.57
2018-12-03T05:14:53.464Z,87.25
2018-12-03T05:17:23.559Z,87.10
2018-12-03T05:19:53.683Z,87.19
2018-12-03T05:22:23.877Z,87.18
2018-12-03T05:24:53.910Z,87.19
2018-12-03T05:27:23.943Z,87.17
2018-12-03T05:29:54.038Z,87.11
2018-12-03T05:32:24.042Z,87.12
2018-12-03T05:34:54.161Z,87.17
2018-12-03T05:37:24.371Z,87.25
2018-12-03T05:39:54.450Z,87.39
2018-12-03T05:42:24.576Z,87.02
2018-12-03T05:44:54.755Z,86.91
2018-12-03T05:47:24.833Z,86.66
2018-12-03T05:49:54.887Z,86.67
2018-12-03T05:52:25.010Z,86.80
2018-12-03T05:54:55.064Z,86.54
2018-12-03T05:57:25.049Z,86.25
2018-12-03T05:59:55.250Z,86.40
2018-12-03T06:02:25.281Z,86.42
2018-12-03T06:04:55.302Z,86.60
2018-12-03T06:07:25.583Z,86.41
2018-12-03T06:09:55.647Z,86.17
2018-12-03T06:12:25.653Z,86.21
2018-12-03T06:14:55.811Z,85.96
2018-12-03T06:17:25.880Z,85.96
2018-12-03T06:19:55.861Z,85.79
2018-12-03T06:22:25.998Z,85.68
2018-12-03T06:24:56.054Z,85.80
2018-12-03T06:27:44.939Z,85.96
2018-12-03T06:30:16.919Z,85.95
2018-12-03T06:32:46.933Z,86.10
2018-12-03T06:35:17.994Z,85.82
2018-12-03T06:37:48.420Z,85.99
2018-12-03T06:40:37.380Z,86.39
2018-12-03T06:43:07.977Z,86.93
2018-12-03T06:45:56.994Z,87.19
2018-12-03T06:48:27.126Z,87.78
2018-12-03T06:50:57.147Z,87.86
2018-12-03T06:53:27.264Z,88.13
2018-12-03T06:55:57.317Z,88.55
2018-12-03T06:58:27.385Z,89.28
2018-12-03T07:00:57.581Z,89.85
2018-12-03T07:03:27.584Z,90.28
2018-12-03T07:05:57.631Z,90.57
2018-12-03T07:11:09.675Z,91.04
2018-12-03T07:13:39.895Z,91.04
2018-12-03T07:16:09.908Z,91.28
2018-12-03T07:18:39.963Z,90.51
2018-12-03T07:21:10.122Z,89.97
2018-12-03T07:23:40.180Z,89.37
2018-12-03T07:26:10.245Z,89.50
2018-12-03T07:28:40.370Z,89.19
2018-12-03T07:31:10.418Z,89.31
2018-12-03T07:33:40.424Z,88.92
2018-12-03T07:36:10.487Z,88.92
2018-12-03T07:38:40.558Z,88.79
2018-12-03T07:41:29.549Z,88.76
2018-12-03T07:46:48.910Z,88.58
2018-12-03T07:49:19.000Z,88.11
2018-12-03T07:51:49.059Z,87.83
2018-12-03T07:54:19.320Z,87.40
2018-12-03T07:56:49.390Z,87.35
2018-12-03T07:59:19.433Z,87.30
2018-12-03T08:01:49.732Z,87.00
2018-12-03T08:04:38.601Z,87.26
2018-12-03T08:07:08.781Z,86.64
2018-12-03T08:09:57.641Z,86.00
2018-12-03T08:12:27.961Z,86.00
2018-12-03T08:14:58.011Z,85.37
2018-12-03T08:17:28.038Z,84.72
2018-12-03T08:19:58.212Z,83.66
2018-12-03T08:22:28.293Z,83.59
2018-12-03T08:24:58.284Z,83.72
2018-12-03T08:27:28.382Z,84.09
2018-12-03T08:29:58.420Z,84.25
2018-12-03T08:32:28.440Z,84.12
2018-12-03T08:34:58.600Z,84.00
2018-12-03T08:40:29.427Z,83.85
2018-12-03T08:42:59.402Z,83.42
2018-12-03T08:45:29.524Z,83.31
2018-12-03T08:51:00.401Z,84.01
2018-12-03T08:53:30.774Z,83.73
2018-12-03T08:56:00.804Z,84.41
2018-12-03T08:58:30.823Z,84.79
2018-12-03T09:03:42.556Z,84.71
2018-12-03T09:06:21.114Z,84.53
2018-12-03T09:08:52.313Z,84.05
2018-12-03T09:11:23.599Z,83.59
2018-12-03T09:13:54.586Z,83.64
2018-12-03T09:16:24.871Z,83.73
2018-12-03T09:18:54.921Z,84.10
2018-12-03T09:21:25.612Z,83.31
2018-12-03T09:26:50.678Z,83.72
2018-12-03T09:29:20.933Z,83.62
2018-12-03T09:31:51.673Z,83.59
2018-12-03T09:34:22.092Z,83.42
2018-12-03T09:36:53.016Z,83.39
2018-12-03T09:39:24.150Z,83.42
2018-12-03T09:41:54.229Z,83.73
2018-12-03T09:44:24.310Z,83.21
2018-12-03T09:46:54.308Z,82.91
2018-12-03T09:49:24.311Z,81.97
2018-12-03T09:54:36.585Z,81.01
2018-12-03T09:57:06.769Z,80.56
2018-12-03T09:59:36.808Z,80.69
2018-12-03T10:02:07.495Z,80.30
2018-12-03T10:04:39.970Z,80.09
2018-12-03T10:07:30.311Z,79.80
2018-12-03T10:10:11.785Z,79.22
2018-12-03T10:12:42.211Z,77.89
2018-12-03T10:18:15.388Z,77.46
2018-12-03T10:20:50.020Z,77.20
2018-12-03T10:23:20.212Z,76.66
2018-12-03T10:25:52.440Z,76.99
2018-12-03T10:28:22.520Z,77.17
2018-12-03T10:30:53.670Z,77.21
2018-12-03T10:36:26.541Z,76.72
2018-12-03T10:38:56.622Z,77.46
2018-12-03T10:41:45.667Z,76.78
2018-12-03T10:47:17.158Z,76.79
2018-12-03T10:49:47.170Z,76.30
2018-12-03T10:53:00.440Z,76.41
2018-12-03T10:55:30.595Z,76.43
2018-12-03T10:58:00.644Z,75.76
2018-12-03T11:00:49.601Z,76.59
2018-12-03T11:03:38.197Z,76.29
2018-12-03T11:06:20.656Z,77.84
2018-12-03T11:08:50.788Z,79.62
2018-12-03T11:11:39.851Z,79.94
2018-12-03T11:14:20.723Z,81.17
2018-12-03T11:17:02.211Z,81.99
2018-12-03T11:25:30.191Z,82.70
2018-12-03T11:28:02.003Z,82.54
2018-12-03T11:33:52.588Z,82.64
2018-12-03T11:37:00.190Z,82.53
2018-12-03T11:40:09.051Z,82.53
2018-12-03T11:45:40.994Z,82.48
2018-12-03T11:48:11.045Z,82.04
2018-12-03T11:50:41.060Z,81.11
2018-12-03T11:53:11.207Z,81.17
2018-12-03T11:55:41.265Z,81.06
2018-12-03T11:58:50.435Z,80.84
2018-12-03T12:01:20.531Z,80.19
2018-12-03T12:03:50.614Z,79.63
2018-12-03T12:11:43.633Z,78.98
2018-12-03T12:14:32.558Z,78.42
2018-12-03T12:17:02.721Z,78.71
2018-12-03T12:19:32.729Z,78.00
2018-12-03T12:24:45.403Z,78.03
2018-12-03T12:27:54.592Z,77.61
2018-12-03T12:30:24.902Z,77.06
2018-12-03T12:32:54.879Z,77.46
2018-12-03T12:38:07.185Z,77.64
2018-12-03T12:41:16.361Z,77.42
2018-12-03T12:43:46.468Z,77.61
2018-12-03T12:50:01.903Z,77.19
2018-12-03T12:52:31.923Z,77.18
2018-12-03T12:55:02.111Z,76.64
2018-12-03T12:57:32.261Z,76.63
2018-12-03T13:00:02.291Z,76.61
2018-12-03T13:02:32.374Z,76.28
2018-12-03T13:05:02.456Z,75.98
2018-12-03T13:07:32.484Z,75.75
2018-12-03T13:10:02.521Z,75.52
2018-12-03T13:12:32.687Z,75.41
2018-12-03T13:15:02.702Z,75.19
2018-12-03T13:17:33.871Z,74.77
2018-12-03T13:22:49.603Z,74.54
2018-12-03T13:28:03.054Z,73.90
2018-12-03T13:33:36.089Z,74.32
2018-12-03T13:41:57.929Z,74.25
2018-12-03T13:44:28.235Z,74.57
2018-12-03T13:47:17.145Z,74.82
2018-12-03T13:52:49.998Z,74.32
2018-12-03T13:55:38.840Z,73.72
2018-12-03T13:58:09.000Z,73.76
2018-12-03T14:00:39.033Z,74.31
2018-12-03T14:03:32.181Z,73.90
2018-12-03T14:06:39.775Z,73.81
2018-12-03T14:09:47.413Z,73.16
2018-12-03T14:12:55.074Z,72.78
2018-12-03T14:16:02.802Z,72.63
2018-12-03T14:18:36.387Z,72.84
2018-12-03T14:24:20.625Z,73.36
2018-12-03T14:26:50.881Z,73.30
2018-12-03T14:29:20.871Z,73.21
2018-12-03T14:31:50.837Z,74.12
2018-12-03T14:34:39.673Z,74.76
2018-12-03T14:37:09.730Z,74.82
2018-12-03T14:39:39.708Z,75.38
2018-12-03T14:42:09.933Z,75.25
2018-12-03T14:44:39.997Z,75.84
2018-12-03T14:47:10.061Z,76.04
2018-12-03T14:49:40.174Z,76.38
2018-12-03T14:52:10.689Z,76.38
2018-12-03T14:54:42.219Z,76.70
2018-12-03T14:57:12.376Z,76.77
2018-12-03T14:59:42.482Z,76.80
2018-12-03T15:02:12.501Z,76.96
2018-12-03T15:04:42.681Z,76.97
2018-12-03T15:07:14.140Z,77.07
2018-12-03T15:09:44.156Z,77.04
2018-12-03T15:12:14.352Z,77.12
2018-12-03T15:14:44.674Z,76.56
2018-12-03T15:17:14.777Z,77.17
2018-12-03T15:22:26.907Z,77.34
2018-12-03T15:24:57.117Z,77.64
2018-12-03T15:27:27.281Z,77.25
2018-12-03T15:29:57.359Z,77.04
2018-12-03T15:35:29.955Z,77.83
2018-12-03T15:38:00.414Z,77.68
2018-12-03T15:40:30.994Z,77.70
2018-12-03T15:43:40.638Z,77.34
2018-12-03T15:46:21.691Z,77.41
2018-12-03T15:48:52.075Z,77.51
2018-12-03T15:51:22.122Z,77.36
2018-12-03T15:53:52.156Z,77.34
2018-12-03T15:59:27.331Z,76.59
2018-12-03T16:01:57.305Z,76.91
2018-12-03T16:04:46.127Z,76.70
2018-12-03T16:07:16.410Z,76.56
2018-12-03T16:09:48.428Z,76.24
2018-12-03T16:12:18.446Z,76.37
2018-12-03T16:14:48.667Z,76.49
2018-12-03T16:20:11.342Z,75.98
2018-12-03T16:22:41.335Z,76.24
2018-12-03T16:25:11.362Z,76.16
2018-12-03T16:27:41.545Z,75.83
2018-12-03T16:30:17.341Z,76.13
2018-12-03T16:32:47.315Z,75.72
2018-12-03T16:35:56.519Z,76.22
2018-12-03T16:38:56.794Z,76.67
2018-12-03T16:44:48.203Z,76.47
2018-12-03T16:47:29.262Z,76.65
2018-12-03T16:53:01.716Z,76.81
2018-12-03T16:55:31.794Z,76.21
2018-12-03T16:58:01.854Z,76.37
2018-12-03T17:00:31.989Z,76.21
2018-12-03T17:03:02.054Z,76.13
2018-12-03T17:05:32.054Z,76.22
2018-12-03T17:08:41.351Z,76.10
2018-12-03T17:11:41.869Z,76.51
2018-12-03T17:14:11.902Z,76.83
2018-12-03T17:16:41.972Z,76.66
2018-12-03T17:19:11.962Z,76.89
2018-12-03T17:25:02.116Z,77.14
2018-12-03T17:30:14.243Z,76.75
2018-12-03T17:32:44.545Z,76.42
2018-12-03T17:38:24.005Z,75.81
2018-12-03T17:40:54.022Z,75.74
2018-12-03T17:43:24.055Z,75.79
2018-12-03T17:45:54.240Z,75.67
2018-12-03T17:48:24.247Z,75.91
2018-12-03T17:50:54.236Z,76.65
2018-12-03T17:53:24.281Z,76.85
2018-12-03T17:55:54.784Z,76.93
2018-12-03T17:58:24.756Z,76.74
2018-12-03T18:00:54.924Z,77.00
2018-12-03T18:03:24.956Z,77.23
2018-12-03T18:05:54.951Z,77.42
2018-12-03T18:08:25.096Z,77.24
2018-12-03T18:10:55.111Z,77.08
2018-12-03T18:19:10.162Z,77.61
2018-12-03T18:21:59.145Z,77.51
2018-12-03T18:27:48.975Z,77.79
2018-12-03T18:30:19.017Z,77.66
2018-12-03T18:32:49.038Z,77.64
2018-12-03T18:35:19.200Z,77.86
2018-12-03T18:37:49.284Z,77.72
2018-12-03T18:40:19.293Z,77.65
2018-12-03T18:42:49.457Z,77.58
2018-12-03T18:45:19.509Z,77.60
2018-12-03T18:47:49.769Z,77.70
2018-12-03T18:50:39.408Z,77.85
2018-12-03T18:53:28.875Z,77.61
2018-12-03T18:55:58.964Z,77.60
2018-12-03T18:58:53.223Z,77.30
2018-12-03T19:01:23.385Z,77.34
2018-12-03T19:03:54.013Z,77.13
2018-12-03T19:06:24.034Z,77.03
2018-12-03T19:08:54.248Z,77.01
2018-12-03T19:11:24.733Z,76.94
2018-12-03T19:13:55.534Z,76.45
2018-12-03T19:16:25.753Z,76.58
2018-12-03T19:18:55.853Z,76.07
2018-12-03T19:21:25.867Z,76.02
2018-12-03T19:26:49.384Z,76.07
2018-12-03T19:29:19.538Z,75.78
2018-12-03T19:31:49.543Z,75.58
2018-12-03T19:34:19.582Z,75.70
2018-12-03T19:36:49.694Z,75.70
2018-12-03T19:39:19.702Z,76.11
2018-12-03T19:41:49.732Z,75.95
2018-12-03T19:44:38.708Z,75.91
2018-12-03T19:47:08.869Z,76.51
2018-12-03T19:49:38.889Z,76.91
2018-12-03T19:55:14.046Z,78.39
2018-12-03T20:00:47.474Z,79.61
2018-12-03T20:03:17.577Z,80.40
2018-12-03T20:05:47.643Z,81.16
2018-12-03T20:08:17.723Z,81.66
2018-12-03T20:10:47.756Z,82.05
2018-12-03T20:16:20.363Z,82.19
2018-12-03T20:18:50.520Z,82.25
2018-12-03T20:21:25.853Z,82.51
2018-12-03T20:27:28.376Z,82.56
2018-12-03T20:30:36.116Z,82.43
2018-12-03T20:33:29.876Z,82.41
2018-12-03T20:36:37.535Z,82.81
2018-12-03T20:39:45.140Z,82.89
2018-12-03T20:42:15.327Z,82.57
2018-12-03T20:44:49.762Z,83.12
2018-12-03T20:47:40.781Z,83.14
2018-12-03T20:50:48.333Z,82.79
2018-12-03T20:53:59.419Z,82.62
2018-12-03T20:56:29.453Z,82.42
2018-12-03T20:58:59.449Z,82.23
2018-12-03T21:01:29.660Z,82.19
2018-12-03T21:03:59.657Z,82.23
2018-12-03T21:06:29.671Z,82.37
2018-12-03T21:08:59.888Z,82.33
2018-12-03T21:11:29.906Z,82.10
2018-12-03T21:13:59.938Z,82.68
2018-12-03T21:19:42.182Z,83.12
2018-12-03T21:22:12.338Z,83.31
2018-12-03T21:24:42.400Z,83.27
2018-12-03T21:27:12.399Z,83.42
2018-12-03T21:29:42.564Z,83.12
2018-12-03T21:32:12.602Z,83.21
2018-12-03T21:34:42.591Z,82.98
2018-12-03T21:37:12.696Z,83.07
2018-12-03T21:39:47.918Z,82.51
2018-12-03T21:42:14.648Z,82.50
2018-12-03T21:44:44.870Z,82.42
2018-12-03T21:47:14.961Z,81.33
2018-12-03T21:49:44.989Z,80.97
2018-12-03T21:52:54.856Z,79.82
2018-12-03T21:55:25.821Z,79.12
2018-12-03T21:57:57.485Z,79.19
2018-12-03T22:00:29.591Z,79.29
2018-12-03T22:02:59.651Z,79.29
2018-12-03T22:05:30.838Z,79.18
2018-12-03T22:08:01.697Z,79.64
2018-12-03T22:10:31.898Z,79.20
2018-12-03T22:13:02.014Z,78.60
2018-12-03T22:15:32.572Z,78.87
2018-12-03T22:18:02.635Z,79.18
2018-12-03T22:20:36.303Z,79.20
2018-12-03T22:23:06.358Z,78.51
2018-12-03T22:25:36.325Z,78.73
2018-12-03T22:28:06.334Z,78.39
2018-12-03T22:30:36.412Z,77.77
2018-12-03T22:33:06.470Z,77.83
2018-12-03T22:35:36.570Z,78.77
2018-12-03T22:38:06.628Z,79.39
2018-12-03T22:40:36.667Z,79.08
2018-12-03T22:43:06.782Z,78.76
2018-12-03T22:45:36.904Z,78.97
2018-12-03T22:48:06.928Z,78.86
2018-12-03T22:50:36.978Z,78.47
2018-12-03T22:53:07.019Z,78.68
2018-12-03T22:55:37.104Z,78.12
2018-12-03T22:58:26.084Z,77.64
2018-12-03T23:01:35.171Z,77.64
2018-12-03T23:06:47.844Z,77.80
2018-12-03T23:09:18.019Z,77.37
2018-12-03T23:14:37.044Z,78.09
2018-12-03T23:17:07.067Z,77.87
2018-12-03T23:19:37.093Z,77.70
2018-12-03T23:22:07.232Z,77.92
2018-12-03T23:24:37.200Z,77.25
2018-12-03T23:27:07.192Z,77.22
2018-12-03T23:33:10.461Z,77.75
2018-12-03T23:35:50.841Z,77.85
2018-12-03T23:38:20.910Z,78.00
2018-12-03T23:40:50.928Z,77.81
2018-12-03T23:43:20.975Z,77.74
2018-12-03T23:45:51.172Z,77.50
2018-12-03T23:48:21.290Z,77.42
2018-12-03T23:50:51.326Z,77.21
2018-12-03T23:53:40.263Z,77.66
2018-12-03T23:56:10.440Z,76.91
